sensor_id;sensor_type;location;lat;lon;timestamp;P1;durP1;ratioP1;P2;durP2;ratioP2
22531;SDS011;11432;46.924;7.114;2023-01-16T00:00:39;2.78;;;0.90;;
22531;SDS011;11432;46.924;7.114;2023-01-16T00:03:05;1.63;;;1.10;;
22531;SDS011;11432;46.924;7.114;2023-01-16T00:05:31;1.80;;;1.02;;
22531;SDS011;11432;46.924;7.114;2023-01-16T00:07:56;2.03;;;1.20;;
22531;SDS011;11432;46.924;7.114;2023-01-16T00:10:22;3.72;;;1.40;;
22531;SDS011;11432;46.924;7.114;2023-01-16T00:12:48;2.13;;;1.00;;
22531;SDS011;11432;46.924;7.114;2023-01-16T00:15:14;3.35;;;1.20;;
22531;SDS011;11432;46.924;7.114;2023-01-16T00:17:39;2.67;;;1.30;;
22531;SDS011;11432;46.924;7.114;2023-01-16T00:20:05;3.50;;;1.20;;
22531;SDS011;11432;46.924;7.114;2023-01-16T00:22:31;2.35;;;1.30;;
22531;SDS011;11432;46.924;7.114;2023-01-16T00:24:57;2.35;;;1.20;;
22531;SDS011;11432;46.924;7.114;2023-01-16T00:27:22;3.70;;;1.30;;
22531;SDS011;11432;46.924;7.114;2023-01-16T00:29:48;2.33;;;1.10;;
22531;SDS011;11432;46.924;7.114;2023-01-16T00:32:13;4.35;;;1.23;;
22531;SDS011;11432;46.924;7.114;2023-01-16T00:34:40;2.67;;;1.15;;
22531;SDS011;11432;46.924;7.114;2023-01-16T00:37:06;3.70;;;1.35;;
22531;SDS011;11432;46.924;7.114;2023-01-16T00:39:31;1.85;;;1.20;;
22531;SDS011;11432;46.924;7.114;2023-01-16T00:41:57;2.75;;;1.10;;
22531;SDS011;11432;46.924;7.114;2023-01-16T00:44:23;2.47;;;1.20;;
22531;SDS011;11432;46.924;7.114;2023-01-16T00:46:49;1.85;;;1.10;;
22531;SDS011;11432;46.924;7.114;2023-01-16T00:49:14;2.17;;;1.13;;
22531;SDS011;11432;46.924;7.114;2023-01-16T00:51:40;1.75;;;1.38;;
22531;SDS011;11432;46.924;7.114;2023-01-16T00:54:05;2.08;;;1.25;;
22531;SDS011;11432;46.924;7.114;2023-01-16T00:56:31;1.13;;;0.90;;
22531;SDS011;11432;46.924;7.114;2023-01-16T00:58:57;2.67;;;1.27;;
22531;SDS011;11432;46.924;7.114;2023-01-16T01:01:22;2.83;;;1.30;;
22531;SDS011;11432;46.924;7.114;2023-01-16T01:03:48;1.80;;;1.17;;
22531;SDS011;11432;46.924;7.114;2023-01-16T01:06:13;2.15;;;1.17;;
22531;SDS011;11432;46.924;7.114;2023-01-16T01:08:39;2.50;;;1.30;;
22531;SDS011;11432;46.924;7.114;2023-01-16T01:11:06;2.58;;;1.40;;
22531;SDS011;11432;46.924;7.114;2023-01-16T01:13:33;3.35;;;1.52;;
22531;SDS011;11432;46.924;7.114;2023-01-16T01:15:59;3.78;;;1.48;;
22531;SDS011;11432;46.924;7.114;2023-01-16T01:18:25;3.50;;;1.55;;
22531;SDS011;11432;46.924;7.114;2023-01-16T01:20:50;2.25;;;1.50;;
22531;SDS011;11432;46.924;7.114;2023-01-16T01:23:16;2.38;;;1.50;;
22531;SDS011;11432;46.924;7.114;2023-01-16T01:25:42;5.80;;;1.77;;
22531;SDS011;11432;46.924;7.114;2023-01-16T01:28:07;2.67;;;1.40;;
22531;SDS011;11432;46.924;7.114;2023-01-16T01:30:33;3.45;;;1.60;;
22531;SDS011;11432;46.924;7.114;2023-01-16T01:32:58;3.08;;;1.33;;
22531;SDS011;11432;46.924;7.114;2023-01-16T01:35:24;2.95;;;1.70;;
22531;SDS011;11432;46.924;7.114;2023-01-16T01:37:49;3.47;;;1.50;;
22531;SDS011;11432;46.924;7.114;2023-01-16T01:40:15;2.60;;;1.42;;
22531;SDS011;11432;46.924;7.114;2023-01-16T01:42:41;2.10;;;1.38;;
22531;SDS011;11432;46.924;7.114;2023-01-16T01:45:14;2.35;;;1.45;;
22531;SDS011;11432;46.924;7.114;2023-01-16T01:53:26;2.25;;;1.20;;
22531;SDS011;11432;46.924;7.114;2023-01-16T01:55:56;4.57;;;2.20;;
22531;SDS011;11432;46.924;7.114;2023-01-16T01:58:25;2.08;;;1.30;;
22531;SDS011;11432;46.924;7.114;2023-01-16T02:00:54;2.20;;;1.45;;
22531;SDS011;11432;46.924;7.114;2023-01-16T02:03:23;2.20;;;1.27;;
22531;SDS011;11432;46.924;7.114;2023-01-16T02:05:56;2.53;;;1.20;;
22531;SDS011;11432;46.924;7.114;2023-01-16T02:08:25;2.75;;;1.20;;
22531;SDS011;11432;46.924;7.114;2023-01-16T02:13:23;1.58;;;1.05;;
22531;SDS011;11432;46.924;7.114;2023-01-16T02:15:49;2.00;;;1.17;;
22531;SDS011;11432;46.924;7.114;2023-01-16T02:18:33;2.63;;;1.20;;
22531;SDS011;11432;46.924;7.114;2023-01-16T02:24:27;2.40;;;1.00;;
22531;SDS011;11432;46.924;7.114;2023-01-16T02:35:09;2.87;;;1.27;;
22531;SDS011;11432;46.924;7.114;2023-01-16T02:40:30;1.27;;;1.13;;
22531;SDS011;11432;46.924;7.114;2023-01-16T02:43:27;1.77;;;1.10;;
22531;SDS011;11432;46.924;7.114;2023-01-16T02:51:56;1.60;;;1.10;;
22531;SDS011;11432;46.924;7.114;2023-01-16T02:54:46;2.47;;;1.23;;
22531;SDS011;11432;46.924;7.114;2023-01-16T02:57:25;1.65;;;1.13;;
22531;SDS011;11432;46.924;7.114;2023-01-16T02:59:55;2.78;;;1.40;;
22531;SDS011;11432;46.924;7.114;2023-01-16T03:02:21;1.70;;;1.13;;
22531;SDS011;11432;46.924;7.114;2023-01-16T03:04:50;2.28;;;1.20;;
22531;SDS011;11432;46.924;7.114;2023-01-16T03:07:22;2.88;;;1.30;;
22531;SDS011;11432;46.924;7.114;2023-01-16T03:18:49;2.10;;;1.20;;
22531;SDS011;11432;46.924;7.114;2023-01-16T03:24:13;1.63;;;1.05;;
22531;SDS011;11432;46.924;7.114;2023-01-16T03:27:40;2.30;;;0.90;;
22531;SDS011;11432;46.924;7.114;2023-01-16T03:39:54;2.87;;;1.23;;
22531;SDS011;11432;46.924;7.114;2023-01-16T03:42:28;2.05;;;1.20;;
22531;SDS011;11432;46.924;7.114;2023-01-16T03:45:11;2.42;;;1.30;;
22531;SDS011;11432;46.924;7.114;2023-01-16T03:47:48;1.90;;;1.38;;
22531;SDS011;11432;46.924;7.114;2023-01-16T03:50:18;2.80;;;1.30;;
22531;SDS011;11432;46.924;7.114;2023-01-16T03:57:52;2.22;;;1.40;;
22531;SDS011;11432;46.924;7.114;2023-01-16T04:00:58;3.58;;;1.70;;
22531;SDS011;11432;46.924;7.114;2023-01-16T04:03:29;3.00;;;1.50;;
22531;SDS011;11432;46.924;7.114;2023-01-16T04:08:57;4.00;;;1.20;;
22531;SDS011;11432;46.924;7.114;2023-01-16T04:11:25;2.53;;;1.50;;
22531;SDS011;11432;46.924;7.114;2023-01-16T04:13:52;2.40;;;1.52;;
22531;SDS011;11432;46.924;7.114;2023-01-16T04:16:20;2.05;;;1.13;;
22531;SDS011;11432;46.924;7.114;2023-01-16T04:18:47;2.63;;;1.33;;
22531;SDS011;11432;46.924;7.114;2023-01-16T04:21:18;1.70;;;1.20;;
22531;SDS011;11432;46.924;7.114;2023-01-16T04:23:43;2.03;;;1.20;;
22531;SDS011;11432;46.924;7.114;2023-01-16T04:26:09;1.63;;;1.10;;
22531;SDS011;11432;46.924;7.114;2023-01-16T04:28:34;2.08;;;1.02;;
22531;SDS011;11432;46.924;7.114;2023-01-16T04:31:00;1.48;;;1.10;;
22531;SDS011;11432;46.924;7.114;2023-01-16T04:33:26;2.28;;;1.10;;
22531;SDS011;11432;46.924;7.114;2023-01-16T04:35:51;1.38;;;0.88;;
22531;SDS011;11432;46.924;7.114;2023-01-16T04:38:17;3.08;;;0.88;;
22531;SDS011;11432;46.924;7.114;2023-01-16T04:40:42;1.30;;;0.90;;
22531;SDS011;11432;46.924;7.114;2023-01-16T04:43:08;2.38;;;1.20;;
22531;SDS011;11432;46.924;7.114;2023-01-16T04:45:34;1.98;;;0.93;;
22531;SDS011;11432;46.924;7.114;2023-01-16T04:47:59;2.60;;;0.68;;
22531;SDS011;11432;46.924;7.114;2023-01-16T04:50:25;2.22;;;0.70;;
22531;SDS011;11432;46.924;7.114;2023-01-16T04:52:50;1.55;;;0.63;;
22531;SDS011;11432;46.924;7.114;2023-01-16T04:55:16;1.85;;;0.50;;
22531;SDS011;11432;46.924;7.114;2023-01-16T04:57:42;3.70;;;0.85;;
22531;SDS011;11432;46.924;7.114;2023-01-16T05:00:08;2.20;;;0.90;;
22531;SDS011;11432;46.924;7.114;2023-01-16T05:02:35;1.50;;;0.80;;
22531;SDS011;11432;46.924;7.114;2023-01-16T05:05:01;1.15;;;0.70;;
22531;SDS011;11432;46.924;7.114;2023-01-16T05:07:27;1.35;;;0.90;;
22531;SDS011;11432;46.924;7.114;2023-01-16T05:09:53;2.08;;;1.00;;
22531;SDS011;11432;46.924;7.114;2023-01-16T05:12:19;2.55;;;0.80;;
22531;SDS011;11432;46.924;7.114;2023-01-16T05:14:45;1.60;;;0.95;;
22531;SDS011;11432;46.924;7.114;2023-01-16T05:17:10;1.45;;;0.90;;
22531;SDS011;11432;46.924;7.114;2023-01-16T05:19:36;2.00;;;0.95;;
22531;SDS011;11432;46.924;7.114;2023-01-16T05:22:02;1.23;;;0.90;;
22531;SDS011;11432;46.924;7.114;2023-01-16T05:24:27;1.02;;;0.75;;
22531;SDS011;11432;46.924;7.114;2023-01-16T05:26:53;2.10;;;1.00;;
22531;SDS011;11432;46.924;7.114;2023-01-16T05:29:18;3.15;;;1.15;;
22531;SDS011;11432;46.924;7.114;2023-01-16T05:31:44;3.97;;;1.23;;
22531;SDS011;11432;46.924;7.114;2023-01-16T05:34:09;2.00;;;1.10;;
22531;SDS011;11432;46.924;7.114;2023-01-16T05:36:35;1.92;;;0.95;;
22531;SDS011;11432;46.924;7.114;2023-01-16T05:39:01;1.50;;;0.95;;
22531;SDS011;11432;46.924;7.114;2023-01-16T05:41:27;2.45;;;1.08;;
22531;SDS011;11432;46.924;7.114;2023-01-16T05:43:53;1.50;;;1.00;;
22531;SDS011;11432;46.924;7.114;2023-01-16T05:46:18;1.50;;;0.90;;
22531;SDS011;11432;46.924;7.114;2023-01-16T05:48:44;2.95;;;1.00;;
22531;SDS011;11432;46.924;7.114;2023-01-16T05:51:09;1.05;;;0.80;;
22531;SDS011;11432;46.924;7.114;2023-01-16T05:53:36;1.40;;;0.90;;
22531;SDS011;11432;46.924;7.114;2023-01-16T05:56:06;2.00;;;1.10;;
22531;SDS011;11432;46.924;7.114;2023-01-16T05:58:33;1.98;;;1.05;;
22531;SDS011;11432;46.924;7.114;2023-01-16T06:00:58;3.35;;;1.13;;
22531;SDS011;11432;46.924;7.114;2023-01-16T06:03:24;2.90;;;0.90;;
22531;SDS011;11432;46.924;7.114;2023-01-16T06:05:49;2.58;;;1.27;;
22531;SDS011;11432;46.924;7.114;2023-01-16T06:08:15;2.05;;;1.02;;
22531;SDS011;11432;46.924;7.114;2023-01-16T06:10:41;3.28;;;1.10;;
22531;SDS011;11432;46.924;7.114;2023-01-16T06:13:06;3.05;;;1.42;;
22531;SDS011;11432;46.924;7.114;2023-01-16T06:15:32;2.17;;;1.17;;
22531;SDS011;11432;46.924;7.114;2023-01-16T06:17:57;2.13;;;1.20;;
22531;SDS011;11432;46.924;7.114;2023-01-16T06:20:23;3.15;;;1.20;;
22531;SDS011;11432;46.924;7.114;2023-01-16T06:22:49;3.03;;;1.20;;
22531;SDS011;11432;46.924;7.114;2023-01-16T06:25:14;2.45;;;1.20;;
22531;SDS011;11432;46.924;7.114;2023-01-16T06:27:40;2.30;;;1.00;;
22531;SDS011;11432;46.924;7.114;2023-01-16T06:30:06;2.05;;;1.00;;
22531;SDS011;11432;46.924;7.114;2023-01-16T06:32:32;3.03;;;1.17;;
22531;SDS011;11432;46.924;7.114;2023-01-16T06:34:58;2.40;;;1.30;;
22531;SDS011;11432;46.924;7.114;2023-01-16T06:37:23;4.45;;;1.70;;
22531;SDS011;11432;46.924;7.114;2023-01-16T06:39:49;3.83;;;2.08;;
22531;SDS011;11432;46.924;7.114;2023-01-16T06:42:14;3.15;;;1.63;;
22531;SDS011;11432;46.924;7.114;2023-01-16T06:44:40;3.92;;;1.70;;
22531;SDS011;11432;46.924;7.114;2023-01-16T06:47:06;2.40;;;1.38;;
22531;SDS011;11432;46.924;7.114;2023-01-16T06:49:33;2.10;;;1.05;;
22531;SDS011;11432;46.924;7.114;2023-01-16T06:51:59;1.88;;;0.98;;
22531;SDS011;11432;46.924;7.114;2023-01-16T06:54:25;4.05;;;1.10;;
22531;SDS011;11432;46.924;7.114;2023-01-16T06:56:51;2.53;;;0.98;;
22531;SDS011;11432;46.924;7.114;2023-01-16T06:59:17;2.08;;;0.70;;
22531;SDS011;11432;46.924;7.114;2023-01-16T07:01:43;1.63;;;0.95;;
22531;SDS011;11432;46.924;7.114;2023-01-16T07:04:08;2.75;;;1.15;;
22531;SDS011;11432;46.924;7.114;2023-01-16T07:06:34;2.05;;;1.10;;
22531;SDS011;11432;46.924;7.114;2023-01-16T07:09:01;1.67;;;1.00;;
22531;SDS011;11432;46.924;7.114;2023-01-16T07:11:27;1.70;;;1.00;;
22531;SDS011;11432;46.924;7.114;2023-01-16T07:13:52;3.08;;;1.15;;
22531;SDS011;11432;46.924;7.114;2023-01-16T07:16:38;2.53;;;1.17;;
22531;SDS011;11432;46.924;7.114;2023-01-16T07:19:22;5.10;;;1.15;;
22531;SDS011;11432;46.924;7.114;2023-01-16T07:22:07;2.45;;;1.20;;
22531;SDS011;11432;46.924;7.114;2023-01-16T07:24:54;2.58;;;1.20;;
22531;SDS011;11432;46.924;7.114;2023-01-16T07:27:19;1.73;;;1.10;;
22531;SDS011;11432;46.924;7.114;2023-01-16T07:29:45;5.07;;;1.52;;
22531;SDS011;11432;46.924;7.114;2023-01-16T07:32:11;2.15;;;1.20;;
22531;SDS011;11432;46.924;7.114;2023-01-16T07:34:36;2.00;;;1.10;;
22531;SDS011;11432;46.924;7.114;2023-01-16T07:37:02;1.63;;;0.95;;
22531;SDS011;11432;46.924;7.114;2023-01-16T07:39:27;2.50;;;1.10;;
22531;SDS011;11432;46.924;7.114;2023-01-16T07:41:53;2.92;;;1.00;;
22531;SDS011;11432;46.924;7.114;2023-01-16T07:44:19;1.85;;;1.15;;
22531;SDS011;11432;46.924;7.114;2023-01-16T07:46:44;1.40;;;0.80;;
22531;SDS011;11432;46.924;7.114;2023-01-16T07:49:10;1.63;;;1.05;;
22531;SDS011;11432;46.924;7.114;2023-01-16T07:51:35;2.42;;;1.08;;
22531;SDS011;11432;46.924;7.114;2023-01-16T07:54:01;1.98;;;0.90;;
22531;SDS011;11432;46.924;7.114;2023-01-16T07:56:26;2.05;;;1.17;;
22531;SDS011;11432;46.924;7.114;2023-01-16T07:58:52;2.70;;;1.23;;
22531;SDS011;11432;46.924;7.114;2023-01-16T08:01:19;1.55;;;0.80;;
22531;SDS011;11432;46.924;7.114;2023-01-16T08:03:45;2.20;;;0.90;;
22531;SDS011;11432;46.924;7.114;2023-01-16T08:06:10;3.25;;;1.20;;
22531;SDS011;11432;46.924;7.114;2023-01-16T08:08:36;4.25;;;1.17;;
22531;SDS011;11432;46.924;7.114;2023-01-16T08:11:02;1.45;;;0.73;;
22531;SDS011;11432;46.924;7.114;2023-01-16T08:13:50;2.03;;;0.77;;
22531;SDS011;11432;46.924;7.114;2023-01-16T08:16:16;5.20;;;1.30;;
22531;SDS011;11432;46.924;7.114;2023-01-16T08:18:41;1.50;;;0.63;;
22531;SDS011;11432;46.924;7.114;2023-01-16T08:21:07;2.25;;;0.80;;
22531;SDS011;11432;46.924;7.114;2023-01-16T08:23:33;2.15;;;0.63;;
22531;SDS011;11432;46.924;7.114;2023-01-16T08:25:58;1.05;;;0.50;;
22531;SDS011;11432;46.924;7.114;2023-01-16T08:28:25;1.63;;;0.68;;
22531;SDS011;11432;46.924;7.114;2023-01-16T08:30:51;1.38;;;0.85;;
22531;SDS011;11432;46.924;7.114;2023-01-16T08:33:16;0.63;;;0.30;;
22531;SDS011;11432;46.924;7.114;2023-01-16T08:35:42;2.10;;;0.80;;
22531;SDS011;11432;46.924;7.114;2023-01-16T08:38:08;2.63;;;1.00;;
22531;SDS011;11432;46.924;7.114;2023-01-16T08:40:33;3.70;;;1.23;;
22531;SDS011;11432;46.924;7.114;2023-01-16T08:42:59;2.35;;;0.95;;
22531;SDS011;11432;46.924;7.114;2023-01-16T08:45:43;1.52;;;0.70;;
22531;SDS011;11432;46.924;7.114;2023-01-16T08:48:27;1.85;;;0.82;;
22531;SDS011;11432;46.924;7.114;2023-01-16T08:51:18;0.98;;;0.50;;
22531;SDS011;11432;46.924;7.114;2023-01-16T08:53:48;1.05;;;0.70;;
22531;SDS011;11432;46.924;7.114;2023-01-16T08:56:14;1.50;;;0.60;;
22531;SDS011;11432;46.924;7.114;2023-01-16T08:58:40;1.48;;;0.60;;
22531;SDS011;11432;46.924;7.114;2023-01-16T09:01:06;2.17;;;1.20;;
22531;SDS011;11432;46.924;7.114;2023-01-16T09:03:31;2.92;;;1.40;;
22531;SDS011;11432;46.924;7.114;2023-01-16T09:05:59;2.78;;;1.10;;
22531;SDS011;11432;46.924;7.114;2023-01-16T09:08:25;2.90;;;1.25;;
22531;SDS011;11432;46.924;7.114;2023-01-16T09:10:51;3.65;;;1.00;;
22531;SDS011;11432;46.924;7.114;2023-01-16T09:13:35;0.93;;;0.52;;
22531;SDS011;11432;46.924;7.114;2023-01-16T09:16:16;4.32;;;0.90;;
22531;SDS011;11432;46.924;7.114;2023-01-16T09:18:47;1.58;;;1.00;;
22531;SDS011;11432;46.924;7.114;2023-01-16T09:21:13;2.10;;;0.80;;
22531;SDS011;11432;46.924;7.114;2023-01-16T09:23:39;1.58;;;0.70;;
22531;SDS011;11432;46.924;7.114;2023-01-16T09:26:04;2.00;;;0.50;;
22531;SDS011;11432;46.924;7.114;2023-01-16T09:28:30;2.05;;;0.70;;
22531;SDS011;11432;46.924;7.114;2023-01-16T09:30:56;1.20;;;0.60;;
22531;SDS011;11432;46.924;7.114;2023-01-16T09:33:21;0.85;;;0.40;;
22531;SDS011;11432;46.924;7.114;2023-01-16T09:35:47;0.60;;;0.47;;
22531;SDS011;11432;46.924;7.114;2023-01-16T09:38:12;0.65;;;0.30;;
22531;SDS011;11432;46.924;7.114;2023-01-16T09:40:38;1.58;;;0.65;;
22531;SDS011;11432;46.924;7.114;2023-01-16T09:43:23;1.15;;;0.50;;
22531;SDS011;11432;46.924;7.114;2023-01-16T09:46:27;0.32;;;0.20;;
22531;SDS011;11432;46.924;7.114;2023-01-16T09:48:54;0.88;;;0.20;;
22531;SDS011;11432;46.924;7.114;2023-01-16T09:51:41;0.63;;;0.28;;
22531;SDS011;11432;46.924;7.114;2023-01-16T09:54:32;0.70;;;0.30;;
22531;SDS011;11432;46.924;7.114;2023-01-16T09:57:28;0.43;;;0.25;;
22531;SDS011;11432;46.924;7.114;2023-01-16T10:00:15;1.80;;;0.30;;
22531;SDS011;11432;46.924;7.114;2023-01-16T10:02:42;0.50;;;0.30;;
22531;SDS011;11432;46.924;7.114;2023-01-16T10:05:08;0.82;;;0.30;;
22531;SDS011;11432;46.924;7.114;2023-01-16T10:13:15;0.52;;;0.30;;
22531;SDS011;11432;46.924;7.114;2023-01-16T10:23:44;1.45;;;0.40;;
22531;SDS011;11432;46.924;7.114;2023-01-16T10:29:20;0.43;;;0.22;;
22531;SDS011;11432;46.924;7.114;2023-01-16T10:31:50;0.60;;;0.30;;
22531;SDS011;11432;46.924;7.114;2023-01-16T10:37:09;0.63;;;0.40;;
22531;SDS011;11432;46.924;7.114;2023-01-16T10:39:36;0.90;;;0.40;;
22531;SDS011;11432;46.924;7.114;2023-01-16T10:45:35;0.43;;;0.28;;
22531;SDS011;11432;46.924;7.114;2023-01-16T10:47:58;0.85;;;0.30;;
22531;SDS011;11432;46.924;7.114;2023-01-16T10:50:43;0.52;;;0.10;;
22531;SDS011;11432;46.924;7.114;2023-01-16T10:53:10;0.90;;;0.20;;
22531;SDS011;11432;46.924;7.114;2023-01-16T10:55:38;0.60;;;0.30;;
22531;SDS011;11432;46.924;7.114;2023-01-16T10:58:13;0.43;;;0.20;;
22531;SDS011;11432;46.924;7.114;2023-01-16T11:00:57;0.10;;;0.10;;
22531;SDS011;11432;46.924;7.114;2023-01-16T11:06:06;1.10;;;0.20;;
22531;SDS011;11432;46.924;7.114;2023-01-16T11:08:37;0.63;;;0.20;;
22531;SDS011;11432;46.924;7.114;2023-01-16T11:11:04;0.22;;;0.10;;
22531;SDS011;11432;46.924;7.114;2023-01-16T11:13:51;0.20;;;0.20;;
22531;SDS011;11432;46.924;7.114;2023-01-16T11:16:36;0.38;;;0.20;;
22531;SDS011;11432;46.924;7.114;2023-01-16T11:19:22;0.20;;;0.10;;
22531;SDS011;11432;46.924;7.114;2023-01-16T11:21:50;3.92;;;0.50;;
22531;SDS011;11432;46.924;7.114;2023-01-16T11:24:20;2.15;;;0.32;;
22531;SDS011;11432;46.924;7.114;2023-01-16T11:26:49;2.78;;;0.30;;
22531;SDS011;11432;46.924;7.114;2023-01-16T11:29:21;0.20;;;0.10;;
22531;SDS011;11432;46.924;7.114;2023-01-16T11:31:53;0.75;;;0.30;;
22531;SDS011;11432;46.924;7.114;2023-01-16T11:34:22;0.10;;;0.10;;
22531;SDS011;11432;46.924;7.114;2023-01-16T11:36:59;0.10;;;0.10;;
22531;SDS011;11432;46.924;7.114;2023-01-16T11:39:29;0.60;;;0.28;;
22531;SDS011;11432;46.924;7.114;2023-01-16T11:41:57;0.22;;;0.10;;
22531;SDS011;11432;46.924;7.114;2023-01-16T11:44:27;0.10;;;0.10;;
22531;SDS011;11432;46.924;7.114;2023-01-16T11:47:16;0.30;;;0.25;;
22531;SDS011;11432;46.924;7.114;2023-01-16T11:49:53;0.05;;;0.00;;
22531;SDS011;11432;46.924;7.114;2023-01-16T11:52:20;0.00;;;0.00;;
22531;SDS011;11432;46.924;7.114;2023-01-16T11:54:54;0.25;;;0.10;;
22531;SDS011;11432;46.924;7.114;2023-01-16T11:57:30;0.95;;;0.20;;
22531;SDS011;11432;46.924;7.114;2023-01-16T12:11:07;0.50;;;0.32;;
22531;SDS011;11432;46.924;7.114;2023-01-16T12:13:48;1.02;;;0.20;;
22531;SDS011;11432;46.924;7.114;2023-01-16T12:22:23;1.02;;;0.20;;
22531;SDS011;11432;46.924;7.114;2023-01-16T12:41:43;0.10;;;0.10;;
22531;SDS011;11432;46.924;7.114;2023-01-16T12:47:13;0.52;;;0.08;;
22531;SDS011;11432;46.924;7.114;2023-01-16T12:49:52;0.10;;;0.10;;
22531;SDS011;11432;46.924;7.114;2023-01-16T12:52:32;0.32;;;0.10;;
22531;SDS011;11432;46.924;7.114;2023-01-16T13:00:17;1.00;;;0.10;;
22531;SDS011;11432;46.924;7.114;2023-01-16T13:03:09;0.22;;;0.10;;
22531;SDS011;11432;46.924;7.114;2023-01-16T13:05:45;0.45;;;0.10;;
22531;SDS011;11432;46.924;7.114;2023-01-16T13:10:46;0.77;;;0.15;;
22531;SDS011;11432;46.924;7.114;2023-01-16T13:18:45;0.10;;;0.00;;
22531;SDS011;11432;46.924;7.114;2023-01-16T13:21:18;0.17;;;0.10;;
22531;SDS011;11432;46.924;7.114;2023-01-16T13:24:00;0.00;;;0.00;;
22531;SDS011;11432;46.924;7.114;2023-01-16T13:26:29;0.10;;;0.10;;
22531;SDS011;11432;46.924;7.114;2023-01-16T13:34:25;0.10;;;0.00;;
22531;SDS011;11432;46.924;7.114;2023-01-16T13:42:28;1.27;;;0.10;;
22531;SDS011;11432;46.924;7.114;2023-01-16T13:45:02;0.80;;;0.13;;
22531;SDS011;11432;46.924;7.114;2023-01-16T13:47:51;0.13;;;0.10;;
22531;SDS011;11432;46.924;7.114;2023-01-16T13:50:25;2.45;;;0.10;;
22531;SDS011;11432;46.924;7.114;2023-01-16T13:52:59;0.25;;;0.10;;
22531;SDS011;11432;46.924;7.114;2023-01-16T13:55:31;0.60;;;0.15;;
22531;SDS011;11432;46.924;7.114;2023-01-16T14:01:27;0.43;;;0.20;;
22531;SDS011;11432;46.924;7.114;2023-01-16T14:06:47;0.20;;;0.10;;
22531;SDS011;11432;46.924;7.114;2023-01-16T14:09:56;0.47;;;0.10;;
22531;SDS011;11432;46.924;7.114;2023-01-16T14:12:32;0.10;;;0.00;;
22531;SDS011;11432;46.924;7.114;2023-01-16T14:18:01;0.30;;;0.10;;
22531;SDS011;11432;46.924;7.114;2023-01-16T14:23:14;0.00;;;0.00;;
22531;SDS011;11432;46.924;7.114;2023-01-16T14:25:59;0.68;;;0.10;;
22531;SDS011;11432;46.924;7.114;2023-01-16T14:28:26;1.98;;;0.30;;
22531;SDS011;11432;46.924;7.114;2023-01-16T14:30:52;0.17;;;0.10;;
22531;SDS011;11432;46.924;7.114;2023-01-16T14:33:18;0.50;;;0.10;;
22531;SDS011;11432;46.924;7.114;2023-01-16T14:35:46;0.10;;;0.08;;
22531;SDS011;11432;46.924;7.114;2023-01-16T14:38:15;1.17;;;0.20;;
22531;SDS011;11432;46.924;7.114;2023-01-16T14:40:48;0.20;;;0.10;;
22531;SDS011;11432;46.924;7.114;2023-01-16T14:43:42;1.25;;;0.10;;
22531;SDS011;11432;46.924;7.114;2023-01-16T14:46:50;0.10;;;0.10;;
22531;SDS011;11432;46.924;7.114;2023-01-16T14:50:04;0.20;;;0.10;;
22531;SDS011;11432;46.924;7.114;2023-01-16T14:53:12;0.30;;;0.00;;
22531;SDS011;11432;46.924;7.114;2023-01-16T14:56:02;0.47;;;0.20;;
22531;SDS011;11432;46.924;7.114;2023-01-16T14:58:38;0.28;;;0.10;;
22531;SDS011;11432;46.924;7.114;2023-01-16T15:01:14;0.00;;;0.00;;
22531;SDS011;11432;46.924;7.114;2023-01-16T15:04:12;0.10;;;0.08;;
22531;SDS011;11432;46.924;7.114;2023-01-16T15:06:42;1.55;;;0.22;;
22531;SDS011;11432;46.924;7.114;2023-01-16T15:09:20;0.10;;;0.10;;
22531;SDS011;11432;46.924;7.114;2023-01-16T15:12:34;0.10;;;0.08;;
22531;SDS011;11432;46.924;7.114;2023-01-16T15:14:50;0.90;;;0.03;;
22531;SDS011;11432;46.924;7.114;2023-01-16T15:17:21;0.25;;;0.20;;
22531;SDS011;11432;46.924;7.114;2023-01-16T15:20:23;1.85;;;0.20;;
22531;SDS011;11432;46.924;7.114;2023-01-16T15:25:57;1.47;;;0.10;;
22531;SDS011;11432;46.924;7.114;2023-01-16T15:31:10;0.47;;;0.10;;
22531;SDS011;11432;46.924;7.114;2023-01-16T15:34:00;0.35;;;0.10;;
22531;SDS011;11432;46.924;7.114;2023-01-16T15:41:43;0.47;;;0.20;;
22531;SDS011;11432;46.924;7.114;2023-01-16T15:44:37;0.00;;;0.00;;
22531;SDS011;11432;46.924;7.114;2023-01-16T15:52:41;0.40;;;0.20;;
22531;SDS011;11432;46.924;7.114;2023-01-16T15:55:27;0.28;;;0.10;;
22531;SDS011;11432;46.924;7.114;2023-01-16T15:57:56;0.32;;;0.28;;
22531;SDS011;11432;46.924;7.114;2023-01-16T16:02:55;0.25;;;0.10;;
22531;SDS011;11432;46.924;7.114;2023-01-16T16:05:27;0.45;;;0.20;;
22531;SDS011;11432;46.924;7.114;2023-01-16T16:07:54;0.45;;;0.10;;
22531;SDS011;11432;46.924;7.114;2023-01-16T16:10:20;0.30;;;0.10;;
22531;SDS011;11432;46.924;7.114;2023-01-16T16:13:06;0.40;;;0.20;;
22531;SDS011;11432;46.924;7.114;2023-01-16T16:15:32;0.43;;;0.20;;
22531;SDS011;11432;46.924;7.114;2023-01-16T16:18:19;0.52;;;0.17;;
22531;SDS011;11432;46.924;7.114;2023-01-16T16:20:46;0.63;;;0.10;;
22531;SDS011;11432;46.924;7.114;2023-01-16T16:25:56;0.15;;;0.10;;
22531;SDS011;11432;46.924;7.114;2023-01-16T16:33:43;0.40;;;0.17;;
22531;SDS011;11432;46.924;7.114;2023-01-16T16:36:17;0.30;;;0.30;;
22531;SDS011;11432;46.924;7.114;2023-01-16T16:38:50;0.65;;;0.20;;
22531;SDS011;11432;46.924;7.114;2023-01-16T16:44:25;0.25;;;0.20;;
22531;SDS011;11432;46.924;7.114;2023-01-16T16:46:58;0.17;;;0.10;;
22531;SDS011;11432;46.924;7.114;2023-01-16T16:51:49;0.45;;;0.10;;
22531;SDS011;11432;46.924;7.114;2023-01-16T16:54:16;0.30;;;0.13;;
22531;SDS011;11432;46.924;7.114;2023-01-16T16:56:51;0.10;;;0.08;;
22531;SDS011;11432;46.924;7.114;2023-01-16T16:59:21;0.15;;;0.00;;
22531;SDS011;11432;46.924;7.114;2023-01-16T17:01:53;1.65;;;0.20;;
22531;SDS011;11432;46.924;7.114;2023-01-16T17:04:20;0.30;;;0.15;;
22531;SDS011;11432;46.924;7.114;2023-01-16T17:06:46;0.55;;;0.25;;
22531;SDS011;11432;46.924;7.114;2023-01-16T17:09:13;0.50;;;0.30;;
22531;SDS011;11432;46.924;7.114;2023-01-16T17:14:08;0.55;;;0.25;;
22531;SDS011;11432;46.924;7.114;2023-01-16T17:16:34;0.95;;;0.60;;
22531;SDS011;11432;46.924;7.114;2023-01-16T17:19:05;1.00;;;0.32;;
22531;SDS011;11432;46.924;7.114;2023-01-16T17:21:40;0.95;;;0.20;;
22531;SDS011;11432;46.924;7.114;2023-01-16T17:24:07;0.40;;;0.10;;
22531;SDS011;11432;46.924;7.114;2023-01-16T17:26:38;1.85;;;0.20;;
22531;SDS011;11432;46.924;7.114;2023-01-16T17:29:05;0.45;;;0.32;;
22531;SDS011;11432;46.924;7.114;2023-01-16T17:31:31;0.88;;;0.20;;
22531;SDS011;11432;46.924;7.114;2023-01-16T17:33:59;0.40;;;0.20;;
22531;SDS011;11432;46.924;7.114;2023-01-16T17:36:25;1.42;;;0.30;;
22531;SDS011;11432;46.924;7.114;2023-01-16T17:38:52;1.08;;;0.30;;
22531;SDS011;11432;46.924;7.114;2023-01-16T17:41:19;0.63;;;0.10;;
22531;SDS011;11432;46.924;7.114;2023-01-16T17:44:22;2.97;;;0.40;;
22531;SDS011;11432;46.924;7.114;2023-01-16T17:47:08;0.27;;;0.10;;
22531;SDS011;11432;46.924;7.114;2023-01-16T17:49:34;0.75;;;0.20;;
22531;SDS011;11432;46.924;7.114;2023-01-16T17:52:20;0.30;;;0.20;;
22531;SDS011;11432;46.924;7.114;2023-01-16T17:54:46;0.60;;;0.20;;
22531;SDS011;11432;46.924;7.114;2023-01-16T17:57:30;0.52;;;0.20;;
22531;SDS011;11432;46.924;7.114;2023-01-16T17:59:56;0.75;;;0.10;;
22531;SDS011;11432;46.924;7.114;2023-01-16T18:02:22;1.13;;;0.28;;
22531;SDS011;11432;46.924;7.114;2023-01-16T18:04:48;1.20;;;0.20;;
22531;SDS011;11432;46.924;7.114;2023-01-16T18:07:15;0.88;;;0.10;;
22531;SDS011;11432;46.924;7.114;2023-01-16T18:09:41;1.38;;;0.10;;
22531;SDS011;11432;46.924;7.114;2023-01-16T18:12:07;0.75;;;0.10;;
22531;SDS011;11432;46.924;7.114;2023-01-16T18:14:52;1.98;;;0.20;;
22531;SDS011;11432;46.924;7.114;2023-01-16T18:17:36;0.93;;;0.20;;
22531;SDS011;11432;46.924;7.114;2023-01-16T18:20:03;0.32;;;0.08;;
22531;SDS011;11432;46.924;7.114;2023-01-16T18:22:31;0.52;;;0.20;;